Time;durP1;ratioP1;P1;durP2;ratioP2;P2;SDS_P1;SDS_P2;PMS_P1;PMS_P2;Temp;Humidity;BMP_temperature;BMP_pressure;BME280_temperature;BME280_humidity;BME280_pressure;Samples;Min_cycle;Max_cycle;Signal;HPM_P1;HPM_P2
2021/11/20 00:01:58;;;;;;;9.15;8.25;;;;;;;;;;4981986;28;24420;-70
2021/11/20 00:04:23;;;;;;;7.95;7.15;;;;;;;;;;4987837;28;24436;-69
2021/11/20 00:06:50;;;;;;;8.30;7.50;;;;;;;;;;4990082;28;24412;-70
2021/11/20 00:09:17;;;;;;;8.65;7.85;;;;;;;;;;4985497;28;25370;-72
2021/11/20 00:11:43;;;;;;;8.70;7.80;;;;;;;;;;4982787;28;24464;-70
2021/11/20 00:14:10;;;;;;;8.43;7.70;;;;;;;;;;4982802;28;25026;-70
2021/11/20 00:16:35;;;;;;;8.00;7.20;;;;;;;;;;4979555;28;24794;-70
2021/11/20 00:19:01;;;;;;;8.23;7.13;;;;;;;;;;4979524;28;24954;-70
2021/11/20 00:21:29;;;;;;;7.30;6.60;;;;;;;;;;4979647;28;24476;-71
2021/11/20 00:23:56;;;;;;;7.18;6.47;;;;;;;;;;4983503;28;24433;-71
2021/11/20 00:26:22;;;;;;;9.10;7.20;;;;;;;;;;4985332;28;25015;-69
2021/11/20 00:31:25;;;;;;;8.50;7.13;;;;;;;;;;4977290;28;24409;-69
2021/11/20 00:33:50;;;;;;;7.95;7.15;;;;;;;;;;4983992;28;24487;-70
2021/11/20 00:36:16;;;;;;;8.20;7.50;;;;;;;;;;4983295;28;24834;-70
2021/11/20 00:38:42;;;;;;;8.88;6.93;;;;;;;;;;4984440;28;24424;-69
2021/11/20 00:41:12;;;;;;;8.48;7.68;;;;;;;;;;4985236;28;24908;-69
2021/11/20 00:43:38;;;;;;;9.43;8.45;;;;;;;;;;4983378;28;25532;-69
2021/11/20 00:46:04;;;;;;;8.68;7.78;;;;;;;;;;4980977;28;24413;-69
2021/11/20 00:48:29;;;;;;;8.80;7.90;;;;;;;;;;4980734;28;25205;-69
2021/11/20 00:50:55;;;;;;;7.67;6.97;;;;;;;;;;4990553;28;24635;-69
2021/11/20 00:53:21;;;;;;;7.38;6.68;;;;;;;;;;4985114;28;25064;-69
2021/11/20 00:55:46;;;;;;;7.55;6.85;;;;;;;;;;4982031;28;24479;-69
2021/11/20 00:58:12;;;;;;;8.60;7.70;;;;;;;;;;4978590;28;24420;-69
2021/11/20 01:00:39;;;;;;;9.60;8.17;;;;;;;;;;4981452;28;24451;-69
2021/11/20 01:03:04;;;;;;;7.97;7.18;;;;;;;;;;4984462;28;24519;-69
2021/11/20 01:05:29;;;;;;;8.23;7.13;;;;;;;;;;4982704;28;24951;-69
2021/11/20 01:07:55;;;;;;;8.20;7.40;;;;;;;;;;4984299;28;24413;-69
2021/11/20 01:10:22;;;;;;;7.73;6.83;;;;;;;;;;4980089;28;25045;-69
2021/11/20 01:12:47;;;;;;;8.85;7.65;;;;;;;;;;4985860;28;24409;-70
2021/11/20 01:15:16;;;;;;;8.00;7.20;;;;;;;;;;4979445;28;24563;-70
2021/11/20 01:17:41;;;;;;;8.00;7.00;;;;;;;;;;4984109;28;24771;-69
2021/11/20 01:20:07;;;;;;;7.95;7.15;;;;;;;;;;4982488;28;25049;-67
2021/11/20 01:22:32;;;;;;;7.57;6.87;;;;;;;;;;4979446;28;24563;-68
2021/11/20 01:24:58;;;;;;;8.80;7.30;;;;;;;;;;4991545;28;24414;-68
2021/11/20 01:27:23;;;;;;;9.20;7.77;;;;;;;;;;4982279;28;25190;-67
2021/11/20 01:29:49;;;;;;;9.15;8.18;;;;;;;;;;4985218;28;24420;-68
2021/11/20 01:32:14;;;;;;;7.63;6.88;;;;;;;;;;4984390;28;24416;-68
2021/11/20 01:34:39;;;;;;;8.93;8.13;;;;;;;;;;4981058;28;24415;-68
2021/11/20 01:37:06;;;;;;;8.73;7.83;;;;;;;;;;4978123;28;24516;-70
2021/11/20 01:39:32;;;;;;;8.77;7.88;;;;;;;;;;4980014;28;24488;-70
2021/11/20 01:41:59;;;;;;;9.63;8.10;;;;;;;;;;4983069;28;24504;-69
2021/11/20 01:44:29;;;;;;;9.50;8.50;;;;;;;;;;4995225;28;24516;-70
2021/11/20 01:46:56;;;;;;;9.27;8.45;;;;;;;;;;4983773;28;24504;-69
2021/11/20 01:49:27;;;;;;;10.00;9.00;;;;;;;;;;4982360;28;24409;-71
2021/11/20 01:51:56;;;;;;;9.32;8.43;;;;;;;;;;4982985;28;25001;-71
2021/11/20 01:54:43;;;;;;;9.63;8.57;;;;;;;;;;4988773;28;24441;-69
2021/11/20 01:57:13;;;;;;;10.30;9.20;;;;;;;;;;4982722;28;24432;-68
2021/11/20 01:59:42;;;;;;;9.30;8.40;;;;;;;;;;4981564;28;25343;-69
2021/11/20 02:02:13;;;;;;;9.43;8.52;;;;;;;;;;4982762;28;24464;-68
2021/11/20 02:04:51;;;;;;;10.27;9.27;;;;;;;;;;4976447;28;25081;-68
2021/11/20 02:07:16;;;;;;;9.70;8.70;;;;;;;;;;4978195;28;24918;-69
2021/11/20 02:09:47;;;;;;;10.13;9.05;;;;;;;;;;4981152;28;25749;-70
2021/11/20 02:12:17;;;;;;;10.05;9.05;;;;;;;;;;4986483;28;24416;-69
2021/11/20 02:14:43;;;;;;;9.90;8.90;;;;;;;;;;4979706;28;24989;-68
2021/11/20 02:17:11;;;;;;;10.00;8.80;;;;;;;;;;4979344;28;24476;-68
2021/11/20 02:19:38;;;;;;;11.60;10.15;;;;;;;;;;4981818;28;24421;-68
2021/11/20 02:22:03;;;;;;;9.60;8.68;;;;;;;;;;4984140;28;24591;-68
2021/11/20 02:24:28;;;;;;;11.80;9.90;;;;;;;;;;4981946;28;25223;-68
2021/11/20 02:26:53;;;;;;;9.65;8.65;;;;;;;;;;4983036;28;24989;-69
2021/11/20 02:29:19;;;;;;;11.02;9.93;;;;;;;;;;4979921;28;24421;-69
2021/11/20 02:31:56;;;;;;;11.20;10.10;;;;;;;;;;4978917;28;24417;-69
2021/11/20 02:34:22;;;;;;;11.07;9.80;;;;;;;;;;4992851;28;25174;-68
2021/11/20 02:36:48;;;;;;;10.20;9.27;;;;;;;;;;4988909;28;25093;-68
2021/11/20 02:39:17;;;;;;;9.15;8.25;;;;;;;;;;4983454;28;24417;-69
2021/11/20 02:41:44;;;;;;;11.82;10.63;;;;;;;;;;4977795;28;24889;-68
2021/11/20 02:44:10;;;;;;;12.63;11.32;;;;;;;;;;4979875;28;24429;-68
2021/11/20 02:46:36;;;;;;;10.75;9.65;;;;;;;;;;4983238;28;24413;-68
2021/11/20 02:49:02;;;;;;;11.50;10.30;;;;;;;;;;4983034;28;24416;-69
2021/11/20 02:51:29;;;;;;;12.60;10.90;;;;;;;;;;4980669;28;24421;-68
2021/11/20 02:53:59;;;;;;;12.10;10.90;;;;;;;;;;4976588;28;24449;-67
2021/11/20 02:56:26;;;;;;;11.85;10.65;;;;;;;;;;4981029;28;24980;-69
2021/11/20 02:58:52;;;;;;;11.20;10.10;;;;;;;;;;4992392;28;24579;-69
2021/11/20 03:01:19;;;;;;;12.20;10.90;;;;;;;;;;4982608;28;24563;-69
2021/11/20 03:03:44;;;;;;;11.10;9.90;;;;;;;;;;4976270;28;24447;-69
2021/11/20 03:06:09;;;;;;;12.10;10.90;;;;;;;;;;4988649;28;24409;-69
2021/11/20 03:08:35;;;;;;;9.80;8.90;;;;;;;;;;4979219;28;24456;-69
2021/11/20 03:11:00;;;;;;;10.13;9.13;;;;;;;;;;4982225;28;24421;-69
2021/11/20 03:13:26;;;;;;;11.32;10.18;;;;;;;;;;4980924;28;24428;-69
2021/11/20 03:15:51;;;;;;;11.57;9.97;;;;;;;;;;4982907;28;24425;-69
2021/11/20 03:18:16;;;;;;;11.50;10.30;;;;;;;;;;4980760;28;24424;-69
2021/11/20 03:20:42;;;;;;;11.80;10.67;;;;;;;;;;4977124;28;24970;-68
2021/11/20 03:23:15;;;;;;;11.25;10.15;;;;;;;;;;4982516;28;24546;-69
2021/11/20 03:25:41;;;;;;;12.03;10.40;;;;;;;;;;4984650;28;24436;-69
2021/11/20 03:28:06;;;;;;;11.23;10.00;;;;;;;;;;4981256;28;24812;-69
2021/11/20 03:30:31;;;;;;;12.65;10.80;;;;;;;;;;4977626;28;24491;-69
2021/11/20 03:32:57;;;;;;;11.80;10.60;;;;;;;;;;4981034;28;24493;-70
2021/11/20 03:35:22;;;;;;;13.20;11.00;;;;;;;;;;4981230;28;24504;-69
2021/11/20 03:37:48;;;;;;;10.70;9.60;;;;;;;;;;4991310;28;24768;-69
2021/11/20 03:40:13;;;;;;;13.60;11.03;;;;;;;;;;4987053;28;24509;-68
2021/11/20 03:42:39;;;;;;;14.63;11.82;;;;;;;;;;4979883;28;24512;-69
2021/11/20 03:45:06;;;;;;;11.40;10.20;;;;;;;;;;4980737;28;24919;-69
2021/11/20 03:47:31;;;;;;;10.70;9.70;;;;;;;;;;4988610;28;24412;-70
2021/11/20 03:49:56;;;;;;;11.97;10.67;;;;;;;;;;4986265;28;25013;-69
2021/11/20 03:52:22;;;;;;;11.70;10.07;;;;;;;;;;4983584;28;24560;-71
2021/11/20 03:54:47;;;;;;;11.52;10.32;;;;;;;;;;4979518;28;24433;-70
2021/11/20 03:57:14;;;;;;;11.15;10.00;;;;;;;;;;4981029;28;21207;-70
2021/11/20 03:59:39;;;;;;;12.70;11.50;;;;;;;;;;4985657;28;24417;-70
2021/11/20 04:02:05;;;;;;;13.23;11.80;;;;;;;;;;4985944;28;24839;-71
2021/11/20 04:04:30;;;;;;;12.43;10.80;;;;;;;;;;4983672;28;24425;-68
2021/11/20 04:06:56;;;;;;;11.27;10.18;;;;;;;;;;4987674;28;24416;-67
2021/11/20 04:09:22;;;;;;;11.60;10.40;;;;;;;;;;4985894;28;24958;-68
2021/11/20 04:11:48;;;;;;;14.10;12.50;;;;;;;;;;4981734;28;24439;-68
2021/11/20 04:14:14;;;;;;;13.00;11.60;;;;;;;;;;4982596;28;24469;-67
2021/11/20 04:16:40;;;;;;;13.45;12.15;;;;;;;;;;4984325;28;24417;-67
2021/11/20 04:19:05;;;;;;;12.88;11.57;;;;;;;;;;4985883;28;24419;-68
2021/11/20 04:21:30;;;;;;;11.97;10.77;;;;;;;;;;4983723;28;25101;-67
2021/11/20 04:23:56;;;;;;;12.43;11.13;;;;;;;;;;4980182;28;24523;-67
2021/11/20 04:26:22;;;;;;;12.65;11.40;;;;;;;;;;4984431;28;24472;-66
2021/11/20 04:28:48;;;;;;;12.55;11.30;;;;;;;;;;4990064;28;24413;-67
2021/11/20 04:31:14;;;;;;;13.00;11.57;;;;;;;;;;4985534;28;24483;-69
2021/11/20 04:33:39;;;;;;;11.27;10.18;;;;;;;;;;4984128;28;24467;-68
2021/11/20 04:36:05;;;;;;;13.73;12.33;;;;;;;;;;4978903;28;25051;-67
2021/11/20 04:38:30;;;;;;;12.32;11.10;;;;;;;;;;4979041;28;24424;-69
2021/11/20 04:40:55;;;;;;;13.13;11.80;;;;;;;;;;4991334;28;24428;-67
2021/11/20 04:43:20;;;;;;;14.90;13.07;;;;;;;;;;4987802;28;24425;-68
2021/11/20 04:45:47;;;;;;;12.50;11.00;;;;;;;;;;4990343;28;24416;-68
2021/11/20 04:48:13;;;;;;;12.15;10.95;;;;;;;;;;4980682;28;24520;-67
2021/11/20 04:50:38;;;;;;;12.10;10.90;;;;;;;;;;4986738;28;24508;-68
2021/11/20 04:53:04;;;;;;;12.97;11.40;;;;;;;;;;4984239;28;24477;-68
2021/11/20 04:55:29;;;;;;;13.67;12.27;;;;;;;;;;4972959;28;25011;-68
2021/11/20 04:57:54;;;;;;;13.10;11.40;;;;;;;;;;4985702;28;24429;-67
2021/11/20 05:00:21;;;;;;;13.25;11.85;;;;;;;;;;4987472;28;24420;-69
2021/11/20 05:02:46;;;;;;;14.68;12.95;;;;;;;;;;4980881;28;24499;-68
2021/11/20 05:05:12;;;;;;;12.50;11.20;;;;;;;;;;4981169;28;24511;-68
2021/11/20 05:07:37;;;;;;;15.30;13.48;;;;;;;;;;4981290;28;24921;-68
2021/11/20 05:10:04;;;;;;;12.05;10.88;;;;;;;;;;4980971;28;24420;-68
2021/11/20 05:12:29;;;;;;;13.88;12.02;;;;;;;;;;4984616;28;24535;-68
2021/11/20 05:14:54;;;;;;;13.43;12.03;;;;;;;;;;4983248;28;24865;-68
2021/11/20 05:17:19;;;;;;;13.00;11.70;;;;;;;;;;4989050;28;24413;-67
2021/11/20 05:19:44;;;;;;;13.88;12.48;;;;;;;;;;4980707;28;24480;-68
2021/11/20 05:22:09;;;;;;;13.25;11.85;;;;;;;;;;4977705;28;24449;-68
2021/11/20 05:24:35;;;;;;;13.90;12.40;;;;;;;;;;4989100;28;24421;-67
2021/11/20 05:27:01;;;;;;;12.60;11.40;;;;;;;;;;4984556;28;24421;-67
2021/11/20 05:31:58;;;;;;;13.60;11.70;;;;;;;;;;4982600;28;24509;-69
2021/11/20 05:34:23;;;;;;;14.60;13.00;;;;;;;;;;4983771;28;24517;-70
2021/11/20 05:36:48;;;;;;;18.33;14.70;;;;;;;;;;4981527;28;24456;-71
2021/11/20 05:39:14;;;;;;;13.80;12.32;;;;;;;;;;4984144;28;24444;-70
2021/11/20 05:41:39;;;;;;;15.23;12.63;;;;;;;;;;4981999;28;24975;-71
2021/11/20 05:44:06;;;;;;;13.90;12.40;;;;;;;;;;4984162;28;24488;-71
2021/11/20 05:46:31;;;;;;;13.40;12.10;;;;;;;;;;4986897;28;24409;-70
2021/11/20 05:48:56;;;;;;;13.70;12.30;;;;;;;;;;4984840;28;24416;-70
2021/11/20 05:51:22;;;;;;;14.30;12.90;;;;;;;;;;4987470;28;24974;-68
2021/11/20 05:53:47;;;;;;;16.63;13.23;;;;;;;;;;4973133;28;24967;-69
2021/11/20 05:56:12;;;;;;;15.93;13.70;;;;;;;;;;4981819;28;24653;-67
2021/11/20 05:58:38;;;;;;;16.30;14.10;;;;;;;;;;4984452;28;24428;-68
2021/11/20 06:01:05;;;;;;;16.83;14.07;;;;;;;;;;4985217;28;24424;-68
2021/11/20 06:03:32;;;;;;;15.85;13.70;;;;;;;;;;4981619;28;24472;-69
2021/11/20 06:05:57;;;;;;;15.52;13.93;;;;;;;;;;4979809;28;24568;-68
2021/11/20 06:08:22;;;;;;;14.95;13.35;;;;;;;;;;4990696;28;25128;-67
2021/11/20 06:10:48;;;;;;;18.20;14.60;;;;;;;;;;4983592;28;24414;-68
2021/11/20 06:13:14;;;;;;;15.52;13.93;;;;;;;;;;4987236;28;25036;-69
2021/11/20 06:15:40;;;;;;;16.77;14.77;;;;;;;;;;4985774;28;24456;-69
2021/11/20 06:18:05;;;;;;;16.07;14.40;;;;;;;;;;4984127;28;24985;-69
2021/11/20 06:20:31;;;;;;;19.67;14.83;;;;;;;;;;4984159;28;24421;-69
2021/11/20 06:22:56;;;;;;;14.90;13.40;;;;;;;;;;4983207;28;24447;-69
2021/11/20 06:25:22;;;;;;;16.10;14.40;;;;;;;;;;4983291;28;24704;-69
2021/11/20 06:27:47;;;;;;;16.23;14.53;;;;;;;;;;4983755;28;24397;-69
2021/11/20 06:30:14;;;;;;;18.10;15.53;;;;;;;;;;4981221;28;24424;-69
2021/11/20 06:32:40;;;;;;;15.88;14.15;;;;;;;;;;4983657;28;24947;-69
2021/11/20 06:35:07;;;;;;;16.00;14.30;;;;;;;;;;4981231;28;24436;-69
2021/11/20 06:37:32;;;;;;;17.50;14.85;;;;;;;;;;4981197;28;24420;-70
2021/11/20 06:39:58;;;;;;;19.60;15.03;;;;;;;;;;4979168;28;24390;-70
2021/11/20 06:42:23;;;;;;;17.03;15.23;;;;;;;;;;4981713;28;24520;-69
2021/11/20 06:44:48;;;;;;;18.50;16.30;;;;;;;;;;4985712;28;24527;-69
2021/11/20 06:47:13;;;;;;;16.80;15.00;;;;;;;;;;4987540;28;24417;-69
2021/11/20 06:49:39;;;;;;;17.67;15.10;;;;;;;;;;4981353;28;24712;-68
2021/11/20 06:52:05;;;;;;;17.38;15.57;;;;;;;;;;4978440;28;24416;-69
2021/11/20 06:54:30;;;;;;;16.48;14.30;;;;;;;;;;4976814;28;24449;-68
2021/11/20 06:57:04;;;;;;;18.63;15.80;;;;;;;;;;4980999;28;24421;-69
2021/11/20 07:02:15;;;;;;;16.42;14.40;;;;;;;;;;4986871;28;24727;-68
2021/11/20 07:04:40;;;;;;;20.27;16.85;;;;;;;;;;4979056;28;24987;-67
2021/11/20 07:07:09;;;;;;;17.80;15.90;;;;;;;;;;4979032;28;24419;-69
2021/11/20 07:09:34;;;;;;;16.77;15.02;;;;;;;;;;4982510;28;24500;-67
2021/11/20 07:11:59;;;;;;;17.23;14.55;;;;;;;;;;4983894;28;24976;-68
2021/11/20 07:14:25;;;;;;;17.03;14.47;;;;;;;;;;4981515;28;24420;-68
2021/11/20 07:16:51;;;;;;;16.80;14.73;;;;;;;;;;4981048;28;24443;-68
2021/11/20 07:19:16;;;;;;;17.63;15.70;;;;;;;;;;4983660;28;24564;-68
2021/11/20 07:21:41;;;;;;;16.07;14.30;;;;;;;;;;4981708;28;24963;-68
2021/11/20 07:24:09;;;;;;;15.60;13.90;;;;;;;;;;4987568;28;24429;-68
2021/11/20 07:26:35;;;;;;;14.05;12.65;;;;;;;;;;4986215;28;24469;-68
2021/11/20 07:29:01;;;;;;;15.40;13.63;;;;;;;;;;4992749;28;24413;-68
2021/11/20 07:31:26;;;;;;;15.88;13.75;;;;;;;;;;4983875;28;24419;-68
2021/11/20 07:33:51;;;;;;;14.90;13.40;;;;;;;;;;4988301;28;24515;-67
2021/11/20 07:36:18;;;;;;;15.73;13.48;;;;;;;;;;4986707;28;24460;-69
2021/11/20 07:38:52;;;;;;;15.25;13.75;;;;;;;;;;4987579;28;24832;-68
2021/11/20 07:41:17;;;;;;;14.10;12.60;;;;;;;;;;4982842;28;24974;-68
2021/11/20 07:43:43;;;;;;;15.27;13.20;;;;;;;;;;4983570;28;24453;-67
2021/11/20 07:46:09;;;;;;;15.82;14.23;;;;;;;;;;4986768;28;25337;-67
2021/11/20 07:48:36;;;;;;;15.23;13.73;;;;;;;;;;4985169;28;24479;-68
2021/11/20 07:51:02;;;;;;;17.08;14.70;;;;;;;;;;4994660;28;24484;-67
2021/11/20 07:53:28;;;;;;;15.77;13.98;;;;;;;;;;4982820;28;25010;-68
2021/11/20 07:55:53;;;;;;;14.10;12.70;;;;;;;;;;4990248;28;24451;-67
2021/11/20 07:58:19;;;;;;;15.35;13.75;;;;;;;;;;4992037;28;24975;-68
2021/11/20 08:00:45;;;;;;;14.00;12.60;;;;;;;;;;4986248;28;24995;-70
2021/11/20 08:03:10;;;;;;;15.05;12.57;;;;;;;;;;4974290;28;24432;-69
2021/11/20 08:05:36;;;;;;;13.05;11.52;;;;;;;;;;4983109;28;24428;-70
2021/11/20 08:08:02;;;;;;;15.38;13.75;;;;;;;;;;4984760;28;24389;-70
2021/11/20 08:10:28;;;;;;;12.80;11.43;;;;;;;;;;4986571;28;24401;-70
2021/11/20 08:12:54;;;;;;;14.07;12.40;;;;;;;;;;4983172;28;24500;-69
2021/11/20 08:15:20;;;;;;;14.07;12.67;;;;;;;;;;4980870;28;24871;-68
2021/11/20 08:17:45;;;;;;;12.90;11.53;;;;;;;;;;4983970;28;26512;-69
2021/11/20 08:20:11;;;;;;;12.40;11.20;;;;;;;;;;4982596;28;25071;-68
2021/11/20 08:22:36;;;;;;;11.63;10.43;;;;;;;;;;4985716;28;24993;-68
2021/11/20 08:25:03;;;;;;;12.10;10.80;;;;;;;;;;4980743;28;24417;-68
2021/11/20 08:27:28;;;;;;;24.42;19.60;;;;;;;;;;4981955;28;24413;-67
2021/11/20 08:29:53;;;;;;;26.10;20.50;;;;;;;;;;4985696;28;24548;-68
2021/11/20 08:32:18;;;;;;;19.43;16.97;;;;;;;;;;4978644;28;24472;-69
2021/11/20 08:34:45;;;;;;;16.07;14.40;;;;;;;;;;4980134;28;24423;-68
2021/11/20 08:37:11;;;;;;;14.35;12.65;;;;;;;;;;4980106;28;24449;-67
2021/11/20 08:39:36;;;;;;;15.00;13.60;;;;;;;;;;4980184;28;24456;-67
2021/11/20 08:42:01;;;;;;;17.43;13.70;;;;;;;;;;4982348;28;24448;-67
2021/11/20 08:44:27;;;;;;;15.53;14.03;;;;;;;;;;4982757;28;24506;-68
2021/11/20 08:46:52;;;;;;;16.70;14.53;;;;;;;;;;4982287;28;24417;-68
2021/11/20 08:49:18;;;;;;;16.92;15.23;;;;;;;;;;4981312;28;24835;-67
2021/11/20 08:51:44;;;;;;;20.73;18.63;;;;;;;;;;4978793;28;24993;-68
2021/11/20 08:54:09;;;;;;;21.15;18.30;;;;;;;;;;4978945;28;24448;-67
2021/11/20 08:56:36;;;;;;;17.93;16.10;;;;;;;;;;4984327;28;24428;-67
2021/11/20 08:59:01;;;;;;;24.38;20.98;;;;;;;;;;4985302;28;24405;-68
2021/11/20 09:01:29;;;;;;;20.73;18.48;;;;;;;;;;4982621;28;24607;-68
2021/11/20 09:04:03;;;;;;;19.90;17.90;;;;;;;;;;4982792;28;25039;-71
2021/11/20 09:06:42;;;;;;;15.50;13.90;;;;;;;;;;4979730;28;24525;-70
2021/11/20 09:09:14;;;;;;;31.50;28.40;;;;;;;;;;4978936;28;24416;-70
2021/11/20 09:11:39;;;;;;;15.90;14.40;;;;;;;;;;4980514;28;24819;-71
2021/11/20 09:14:20;;;;;;;16.75;14.90;;;;;;;;;;4981916;28;24775;-69
2021/11/20 09:16:45;;;;;;;14.60;13.10;;;;;;;;;;4964473;28;24416;-71
2021/11/20 09:19:11;;;;;;;14.97;12.33;;;;;;;;;;4961599;28;24398;-71
2021/11/20 09:21:37;;;;;;;12.60;11.30;;;;;;;;;;4960447;28;24517;-70
2021/11/20 09:24:03;;;;;;;13.55;12.25;;;;;;;;;;4963928;28;24418;-70
2021/11/20 09:26:29;;;;;;;14.80;13.20;;;;;;;;;;4963562;28;24829;-70
2021/11/20 09:28:56;;;;;;;12.38;11.18;;;;;;;;;;4965506;28;24465;-71
2021/11/20 09:31:21;;;;;;;12.15;11.05;;;;;;;;;;4972782;28;24987;-70
2021/11/20 09:33:47;;;;;;;14.20;12.90;;;;;;;;;;4962559;28;24424;-71
2021/11/20 09:36:20;;;;;;;14.43;13.03;;;;;;;;;;4973896;28;24421;-70
2021/11/20 09:38:46;;;;;;;15.27;13.77;;;;;;;;;;4985754;28;24405;-70
2021/11/20 09:41:11;;;;;;;23.17;20.20;;;;;;;;;;4982556;28;24997;-70
2021/11/20 09:43:37;;;;;;;16.73;15.03;;;;;;;;;;4980398;28;25413;-71
2021/11/20 09:46:08;;;;;;;15.88;14.32;;;;;;;;;;4980152;28;24440;-70
2021/11/20 09:48:41;;;;;;;14.40;12.90;;;;;;;;;;4979961;28;24508;-71
2021/11/20 09:51:27;;;;;;;13.82;12.27;;;;;;;;;;4979080;28;24390;-70
2021/11/20 09:53:53;;;;;;;12.18;10.98;;;;;;;;;;4979106;28;25093;-71
2021/11/20 09:56:22;;;;;;;13.27;11.97;;;;;;;;;;4982166;28;24484;-72
2021/11/20 09:58:50;;;;;;;12.18;10.98;;;;;;;;;;4969198;28;24425;-67
2021/11/20 10:01:28;;;;;;;14.20;12.70;;;;;;;;;;4962048;28;24401;-69
2021/11/20 10:03:59;;;;;;;15.98;13.77;;;;;;;;;;4965881;28;24425;-69
2021/11/20 10:06:27;;;;;;;14.05;12.55;;;;;;;;;;4963856;28;24740;-71
2021/11/20 10:09:04;;;;;;;14.30;12.82;;;;;;;;;;4962575;28;24398;-68
2021/11/20 10:11:35;;;;;;;13.30;12.00;;;;;;;;;;4959890;28;24843;-69
2021/11/20 10:14:02;;;;;;;12.90;11.60;;;;;;;;;;4962030;28;24424;-70
2021/11/20 10:16:42;;;;;;;14.90;13.50;;;;;;;;;;4963773;28;24448;-70
2021/11/20 10:19:13;;;;;;;11.40;10.30;;;;;;;;;;4965464;28;24397;-70
2021/11/20 10:21:53;;;;;;;14.93;13.23;;;;;;;;;;4960067;28;24417;-69
2021/11/20 10:24:37;;;;;;;13.90;12.40;;;;;;;;;;4960037;28;24426;-71
2021/11/20 10:27:15;;;;;;;14.68;13.18;;;;;;;;;;4970687;28;24417;-70
2021/11/20 10:30:16;;;;;;;13.90;12.50;;;;;;;;;;4963599;28;24527;-70
2021/11/20 10:32:49;;;;;;;14.30;12.90;;;;;;;;;;4940184;29;24877;-70
2021/11/20 10:35:17;;;;;;;14.63;12.93;;;;;;;;;;4958168;28;24434;-70
2021/11/20 10:37:46;;;;;;;13.30;12.00;;;;;;;;;;4962597;28;24417;-70
2021/11/20 10:40:26;;;;;;;13.60;12.20;;;;;;;;;;4961316;28;24805;-70
2021/11/20 10:42:54;;;;;;;13.57;12.18;;;;;;;;;;4963074;28;24449;-70
2021/11/20 10:45:28;;;;;;;16.05;14.18;;;;;;;;;;4959461;28;24948;-70
2021/11/20 10:47:56;;;;;;;14.10;12.70;;;;;;;;;;4960850;28;24764;-70
2021/11/20 10:50:48;;;;;;;14.70;12.07;;;;;;;;;;4965478;28;24413;-70
2021/11/20 10:53:32;;;;;;;12.63;11.40;;;;;;;;;;4977689;28;25407;-71
2021/11/20 10:56:15;;;;;;;13.25;11.85;;;;;;;;;;4986478;28;24923;-69
2021/11/20 10:58:53;;;;;;;12.97;11.67;;;;;;;;;;4985422;28;24484;-71
2021/11/20 11:01:32;;;;;;;12.23;11.02;;;;;;;;;;4986855;28;24405;-69
2021/11/20 11:04:16;;;;;;;12.30;11.02;;;;;;;;;;4982940;28;24426;-69
2021/11/20 11:06:48;;;;;;;11.97;10.87;;;;;;;;;;4968684;28;24477;-70
2021/11/20 11:09:16;;;;;;;9.85;8.95;;;;;;;;;;4987958;28;24463;-71
2021/11/20 11:11:45;;;;;;;11.38;10.18;;;;;;;;;;4984473;28;24393;-70
2021/11/20 11:14:16;;;;;;;12.03;10.73;;;;;;;;;;4984307;28;24545;-72
2021/11/20 11:16:41;;;;;;;10.10;9.20;;;;;;;;;;4978972;28;24854;-70
2021/11/20 11:19:18;;;;;;;11.20;10.20;;;;;;;;;;4976037;28;24807;-71
2021/11/20 11:21:58;;;;;;;11.30;10.30;;;;;;;;;;4968023;28;24998;-70
2021/11/20 11:24:26;;;;;;;10.50;9.50;;;;;;;;;;4965248;28;25051;-69
2021/11/20 11:26:54;;;;;;;9.10;8.20;;;;;;;;;;4964401;28;24460;-69
2021/11/20 11:29:25;;;;;;;8.60;7.90;;;;;;;;;;4965420;28;24456;-69
2021/11/20 11:31:51;;;;;;;7.53;6.75;;;;;;;;;;4967285;28;24438;-69
2021/11/20 11:34:26;;;;;;;8.60;7.80;;;;;;;;;;4984192;28;24405;-70
2021/11/20 11:37:04;;;;;;;7.40;6.70;;;;;;;;;;4983111;28;24795;-70
2021/11/20 11:39:33;;;;;;;7.70;6.93;;;;;;;;;;4981165;28;24417;-70
2021/11/20 11:41:58;;;;;;;8.63;7.38;;;;;;;;;;4982592;28;24427;-69
2021/11/20 11:44:23;;;;;;;8.63;7.82;;;;;;;;;;4985421;28;24405;-70
2021/11/20 11:46:54;;;;;;;7.88;7.07;;;;;;;;;;4983750;28;24403;-70
2021/11/20 11:49:38;;;;;;;8.90;8.00;;;;;;;;;;4981599;28;24467;-71
2021/11/20 11:52:22;;;;;;;8.95;8.15;;;;;;;;;;4981574;28;24414;-69
2021/11/20 11:55:06;;;;;;;7.53;6.90;;;;;;;;;;4986034;28;24476;-71
2021/11/20 11:57:39;;;;;;;8.48;7.78;;;;;;;;;;4983133;28;24408;-70
2021/11/20 12:00:24;;;;;;;8.00;7.30;;;;;;;;;;4981534;28;24389;-71
2021/11/20 12:02:51;;;;;;;7.88;7.07;;;;;;;;;;4976360;28;24439;-69
2021/11/20 12:05:24;;;;;;;6.85;6.25;;;;;;;;;;4982456;28;24568;-70
2021/11/20 12:07:49;;;;;;;7.40;6.70;;;;;;;;;;4984898;28;24405;-71
2021/11/20 12:10:34;;;;;;;7.90;7.13;;;;;;;;;;4985460;28;24622;-70
2021/11/20 12:13:10;;;;;;;7.70;7.00;;;;;;;;;;4982444;28;24456;-70
2021/11/20 12:15:40;;;;;;;7.60;6.90;;;;;;;;;;4987844;28;24417;-69
2021/11/20 12:18:11;;;;;;;7.18;6.47;;;;;;;;;;4979241;28;24915;-69
2021/11/20 12:21:04;;;;;;;7.20;6.60;;;;;;;;;;4980109;28;24409;-69
2021/11/20 12:23:37;;;;;;;6.83;6.20;;;;;;;;;;4961210;28;24527;-70
2021/11/20 12:26:11;;;;;;;7.90;7.10;;;;;;;;;;5001715;28;25089;-70
2021/11/20 12:28:38;;;;;;;8.00;7.30;;;;;;;;;;4979447;28;25416;-70
2021/11/20 12:31:21;;;;;;;6.70;6.10;;;;;;;;;;4979810;28;24655;-69
2021/11/20 12:34:05;;;;;;;7.38;6.68;;;;;;;;;;4983630;28;24879;-71
2021/11/20 12:36:37;;;;;;;6.57;6.07;;;;;;;;;;4985370;28;24445;-72
2021/11/20 12:39:13;;;;;;;7.80;7.00;;;;;;;;;;4979567;28;24453;-71
2021/11/20 12:41:57;;;;;;;7.30;6.70;;;;;;;;;;4976449;28;24436;-72
2021/11/20 12:44:39;;;;;;;5.90;5.40;;;;;;;;;;4981769;28;24787;-71
2021/11/20 12:47:21;;;;;;;7.60;6.90;;;;;;;;;;4981798;28;24493;-71
2021/11/20 12:50:05;;;;;;;7.05;6.45;;;;;;;;;;4977981;28;24413;-71
2021/11/20 12:52:30;;;;;;;7.45;6.75;;;;;;;;;;4994803;28;24468;-70
2021/11/20 12:55:24;;;;;;;6.20;5.70;;;;;;;;;;4986989;28;24507;-69
2021/11/20 12:57:52;;;;;;;5.75;5.25;;;;;;;;;;4958252;28;24937;-70
2021/11/20 13:00:20;;;;;;;6.40;5.80;;;;;;;;;;5009976;28;24771;-70
2021/11/20 13:02:58;;;;;;;6.70;6.10;;;;;;;;;;4988984;28;24535;-73
2021/11/20 13:05:23;;;;;;;6.80;6.20;;;;;;;;;;4980153;28;24677;-70
2021/11/20 13:07:54;;;;;;;6.70;6.00;;;;;;;;;;4992294;28;25254;-73
2021/11/20 13:10:22;;;;;;;7.22;6.53;;;;;;;;;;4982166;28;24424;-71
2021/11/20 13:12:54;;;;;;;6.63;6.03;;;;;;;;;;4981718;28;24859;-69
2021/11/20 13:15:51;;;;;;;5.90;5.40;;;;;;;;;;4981445;28;24891;-70
2021/11/20 13:18:19;;;;;;;6.45;5.85;;;;;;;;;;4947432;28;24440;-70
2021/11/20 13:20:53;;;;;;;7.70;7.00;;;;;;;;;;4980507;28;24420;-71
2021/11/20 13:23:19;;;;;;;6.20;5.70;;;;;;;;;;4981077;28;24922;-71
2021/11/20 13:26:00;;;;;;;7.10;6.50;;;;;;;;;;4980596;28;24444;-70
2021/11/20 13:28:25;;;;;;;6.95;6.00;;;;;;;;;;4987933;28;24512;-70
2021/11/20 13:30:51;;;;;;;7.28;6.60;;;;;;;;;;4981445;28;25212;-69
2021/11/20 13:33:16;;;;;;;7.60;6.73;;;;;;;;;;4981937;28;24508;-69
2021/11/20 13:35:41;;;;;;;6.93;6.33;;;;;;;;;;4975450;28;24783;-69
2021/11/20 13:38:10;;;;;;;6.80;6.20;;;;;;;;;;4976379;28;24567;-69
2021/11/20 13:40:42;;;;;;;6.80;6.20;;;;;;;;;;4984937;28;24417;-69
2021/11/20 13:43:18;;;;;;;6.85;6.15;;;;;;;;;;4977126;28;24521;-70
2021/11/20 13:45:44;;;;;;;6.60;6.00;;;;;;;;;;4978669;28;24965;-70
2021/11/20 13:48:10;;;;;;;6.40;5.80;;;;;;;;;;4978008;28;24456;-70
2021/11/20 13:50:43;;;;;;;6.37;5.77;;;;;;;;;;4978164;28;24437;-70
2021/11/20 13:53:12;;;;;;;6.40;5.80;;;;;;;;;;4977715;28;24452;-71
2021/11/20 13:55:37;;;;;;;7.03;6.43;;;;;;;;;;4975669;28;24428;-71
2021/11/20 13:58:03;;;;;;;7.53;6.83;;;;;;;;;;4975417;28;24429;-70
2021/11/20 14:00:28;;;;;;;7.78;6.97;;;;;;;;;;4976095;28;24449;-70
2021/11/20 14:02:54;;;;;;;6.10;5.60;;;;;;;;;;4981741;28;24987;-70
2021/11/20 14:05:20;;;;;;;6.70;6.00;;;;;;;;;;4977971;28;24756;-69
2021/11/20 14:07:46;;;;;;;7.97;7.25;;;;;;;;;;4977885;28;25169;-69
2021/11/20 14:10:13;;;;;;;7.80;7.00;;;;;;;;;;4977438;28;25010;-70
2021/11/20 14:13:05;;;;;;;6.75;6.00;;;;;;;;;;4980045;28;24397;-70
2021/11/20 14:15:41;;;;;;;7.20;6.50;;;;;;;;;;4977723;28;25057;-74
2021/11/20 14:18:06;;;;;;;7.00;6.30;;;;;;;;;;4975635;28;24409;-71
2021/11/20 14:20:45;;;;;;;7.65;6.78;;;;;;;;;;4975563;28;24412;-70
2021/11/20 14:23:11;;;;;;;7.90;7.20;;;;;;;;;;4977514;28;24536;-71
2021/11/20 14:25:37;;;;;;;8.25;7.45;;;;;;;;;;4978969;28;24974;-71
2021/11/20 14:28:03;;;;;;;7.30;6.60;;;;;;;;;;4979217;28;24413;-71
2021/11/20 14:30:28;;;;;;;5.83;5.33;;;;;;;;;;4963555;28;24428;-73
2021/11/20 14:33:04;;;;;;;5.83;5.33;;;;;;;;;;4979696;28;24798;-72
2021/11/20 14:35:29;;;;;;;6.30;5.70;;;;;;;;;;4977725;28;24413;-71
2021/11/20 14:37:58;;;;;;;6.30;5.70;;;;;;;;;;4976114;28;24411;-71
2021/11/20 14:40:23;;;;;;;6.97;6.30;;;;;;;;;;4976006;28;24915;-71
2021/11/20 14:42:48;;;;;;;6.65;6.05;;;;;;;;;;4977379;28;24475;-68
2021/11/20 14:45:18;;;;;;;7.30;6.60;;;;;;;;;;4981038;28;24928;-64